Terminal Aerodrome Forecast
Issued by NWS Topeka, KS

Home | Current Version | Previous Version | Text Only | Print | Product List | Glossary On
Versions: 1 2 3 4 5 6 7 8 9 10 11 12 13 14 15 16 17 18 19 20 21
000
FTUS43 KTOP 011100
TAFTOP
TAF
KTOP 011123Z 0112/0212 36010KT 3SM -RASN BR OVC005
     FM011400 34022G32KT 5SM -SN BR OVC008
     FM012100 32021G30KT P6SM OVC015
     FM020100 33016G24KT P6SM OVC025
     FM020600 32014KT P6SM SCT025=

USA.gov is the U.S. government's official web portal to all federal, state and local government web resources and services.